Morrow, OH (45152)

8:47 AM EDT on July 28, 2016 (GMT -0400)
Cabin Bright World HQ | | Change Station

Elev 915 ft 39.39 °N, 84.14 °W | Updated 44 seconds ago

Light Rain
Light Rain Mist
71.2 °F
Feels Like 71.2 °F
N
0.0
Wind Variable Wind from South
Gusts 0.0 mph

Today
High -- | Low -- °F
--% Chance of Precip.
Yesterday
High -- | Low -- °F
Precip. -- in
Pressure 29.94 in
Visibility 4.0 miles
Clouds Few 500 ft
Scattered Clouds 9500 ft
Mostly Cloudy 12000 ft
Dew Point 70 °F
Humidity 96%
Rainfall 0.25 in
Snow Depth Not available.
6:33 AM 8:51 PM
Waning Crescent, 32% visible
SPECI KILN 281201Z AUTO 23006KT 4SM -RA BR FEW005 SCT095 BKN120 21/21 A2994 RMK AO2 LTG DSNT NW P0001 T02110206
Pressure 29.94 in
Visibility 4.0 miles
Clouds Few 500 ft
Scattered Clouds 9500 ft
Mostly Cloudy 12000 ft
Dew Point 70 °F
Humidity 96%
Rainfall 0.25 in
Snow Depth Not available.
6:33 AM 8:51 PM
Waning Crescent, 32% visible
SPECI KILN 281201Z AUTO 23006KT 4SM -RA BR FEW005 SCT095 BKN120 21/21 A2994 RMK AO2 LTG DSNT NW P0001 T02110206

10-Day Weather Forecast

Almanac

Astronomy

Jul. 28, 2016 Rise Set
Actual Time
Civil Twilight
Nautical Twilight
Astronomical Twilight
Moon
Length of Visible Light
Length of Day
Tomorrow will be .
, % of the Moon is Illuminated

Today's Extremes

State Highs State Lows

Community

WunderPhotos

Upload Photos

1,928,101 photos uploaded!

WunderBlog® & News

Nearby

Air Quality

  Air Quality AQ Index Pollutant
Not available.

Snow Depth

Station Depth Elevation

Earthquake Activity

City Distance Mag. Time & Date
Minimum magnitude displayed is 2.5.

Coastal Water Temperatures

Place Temperature

Stations

Nearby Weather Stations

Station Location Temp. Windchill Dew Point Humidity Wind Precip. Elev Updated Type
                   

Watches & Warnings

There are currently no watches in effect.